createdAt,value
2023-11-27T00:00:37.673Z,87.63
2023-11-27T00:03:08.196Z,88.47
2023-11-27T00:05:35.144Z,88.38
2023-11-27T00:08:02.175Z,89.58
2023-11-27T00:10:28.953Z,90.30
2023-11-27T00:13:01.067Z,90.63
2023-11-27T00:15:28.670Z,90.38
2023-11-27T00:17:56.034Z,90.80
2023-11-27T00:20:23.908Z,90.45
2023-11-27T00:22:50.909Z,90.49
2023-11-27T00:25:17.796Z,90.79
2023-11-27T00:27:44.650Z,89.94
2023-11-27T00:30:12.115Z,88.62
2023-11-27T00:32:39.085Z,88.76
2023-11-27T00:35:07.596Z,87.42
2023-11-27T00:37:34.618Z,87.33
2023-11-27T00:40:01.459Z,85.85
2023-11-27T00:42:28.595Z,86.46
2023-11-27T00:44:55.502Z,85.61
2023-11-27T00:47:22.496Z,84.84
2023-11-27T00:49:49.280Z,84.84
2023-11-27T00:52:16.169Z,85.18
2023-11-27T00:54:43.011Z,85.23
2023-11-27T00:57:09.765Z,85.35
2023-11-27T00:59:41.856Z,85.82
2023-11-27T01:02:09.395Z,84.80
2023-11-27T01:04:40.176Z,84.31
2023-11-27T01:07:07.550Z,84.31
2023-11-27T01:09:35.696Z,83.92
2023-11-27T01:12:05.246Z,85.57
2023-11-27T01:14:32.453Z,85.93
2023-11-27T01:16:59.513Z,85.30
2023-11-27T01:19:26.322Z,86.05
2023-11-27T01:21:54.456Z,85.46
2023-11-27T01:24:21.783Z,85.74
2023-11-27T01:26:51.802Z,86.46
2023-11-27T01:29:19.497Z,86.50
2023-11-27T01:31:46.376Z,87.83
2023-11-27T01:34:13.266Z,87.10
2023-11-27T01:36:40.965Z,87.62
2023-11-27T01:39:08.000Z,87.86
2023-11-27T01:41:34.786Z,87.21
2023-11-27T01:44:01.584Z,87.44
2023-11-27T01:46:28.962Z,87.78
2023-11-27T01:48:57.665Z,88.14
2023-11-27T01:51:26.636Z,88.63
2023-11-27T01:53:58.415Z,88.30
2023-11-27T01:56:27.351Z,88.34
2023-11-27T01:58:57.967Z,87.65
2023-11-27T02:01:26.762Z,87.88
2023-11-27T02:03:53.724Z,89.10
2023-11-27T02:06:20.497Z,89.13
2023-11-27T02:08:47.994Z,89.02
2023-11-27T02:11:19.904Z,88.44
2023-11-27T02:13:47.046Z,89.26
2023-11-27T02:16:14.670Z,89.45
2023-11-27T02:18:41.570Z,89.13
2023-11-27T02:21:08.785Z,89.06
2023-11-27T02:23:35.873Z,88.72
2023-11-27T02:26:02.603Z,88.70
2023-11-27T02:28:29.415Z,88.38
2023-11-27T02:30:56.362Z,88.52
2023-11-27T02:33:26.664Z,88.64
2023-11-27T02:35:54.894Z,89.00
2023-11-27T02:38:21.641Z,88.89
2023-11-27T02:40:48.614Z,88.96
2023-11-27T02:43:15.850Z,89.33
2023-11-27T02:45:42.701Z,89.43
2023-11-27T02:48:09.534Z,89.44
2023-11-27T02:50:36.259Z,90.00
2023-11-27T02:53:03.031Z,89.54
2023-11-27T02:55:30.073Z,89.43
2023-11-27T02:57:56.888Z,89.02
2023-11-27T03:00:24.469Z,88.61
2023-11-27T03:02:52.327Z,88.07
2023-11-27T03:05:20.021Z,87.59
2023-11-27T03:07:46.758Z,87.21
2023-11-27T03:10:14.843Z,86.13
2023-11-27T03:12:42.669Z,86.17
2023-11-27T03:15:09.773Z,86.01
2023-11-27T03:17:40.903Z,85.42
2023-11-27T03:20:11.768Z,86.06
2023-11-27T03:22:39.065Z,85.76
2023-11-27T03:25:06.467Z,85.79
2023-11-27T03:27:33.623Z,86.12
2023-11-27T03:30:04.574Z,86.24
2023-11-27T03:32:32.729Z,86.17
2023-11-27T03:34:59.779Z,85.25
2023-11-27T03:37:26.636Z,85.92
2023-11-27T03:39:53.822Z,85.55
2023-11-27T03:42:20.703Z,85.69
2023-11-27T03:44:47.468Z,85.64
2023-11-27T03:47:14.294Z,86.03
2023-11-27T03:49:41.102Z,85.40
2023-11-27T03:52:08.944Z,84.90
2023-11-27T03:54:36.088Z,85.35
2023-11-27T03:57:02.896Z,84.76
2023-11-27T03:59:29.731Z,84.16
2023-11-27T04:01:56.992Z,82.81
2023-11-27T04:04:23.968Z,83.02
2023-11-27T04:06:50.791Z,82.88
2023-11-27T04:09:22.585Z,82.60
2023-11-27T04:11:53.232Z,82.01
2023-11-27T04:14:20.075Z,82.40
2023-11-27T04:16:47.061Z,83.01
2023-11-27T04:19:13.943Z,82.92
2023-11-27T04:21:40.690Z,82.13
2023-11-27T04:24:08.036Z,82.91
2023-11-27T04:26:35.012Z,82.57
2023-11-27T04:29:02.400Z,81.97
2023-11-27T04:31:30.090Z,82.63
2023-11-27T04:33:56.994Z,82.73
2023-11-27T04:36:24.603Z,83.04
2023-11-27T04:38:51.961Z,82.85
2023-11-27T04:41:18.725Z,83.59
2023-11-27T04:43:45.536Z,84.20
2023-11-27T04:46:12.652Z,83.99
2023-11-27T04:48:39.718Z,84.06
2023-11-27T04:51:06.952Z,84.30
2023-11-27T04:53:35.979Z,84.32
2023-11-27T04:56:03.514Z,83.87
2023-11-27T04:58:30.293Z,84.68
2023-11-27T05:00:57.287Z,84.65
2023-11-27T05:03:24.513Z,84.51
2023-11-27T05:05:51.270Z,84.84
2023-11-27T05:08:18.082Z,85.12
2023-11-27T05:10:47.054Z,85.35
2023-11-27T05:13:15.066Z,85.45
2023-11-27T05:15:41.833Z,85.39
2023-11-27T05:18:09.824Z,84.33
2023-11-27T05:20:36.706Z,84.02
2023-11-27T05:23:03.892Z,84.07
2023-11-27T05:25:30.723Z,84.02
2023-11-27T05:27:57.584Z,81.40
2023-11-27T05:30:24.362Z,80.00
2023-11-27T05:32:51.711Z,79.31
2023-11-27T05:35:18.796Z,77.67
2023-11-27T05:37:45.761Z,77.15
2023-11-27T05:40:12.618Z,75.50
2023-11-27T05:42:41.349Z,74.69
2023-11-27T05:45:12.430Z,73.12
2023-11-27T05:47:41.034Z,71.81
2023-11-27T05:50:20.149Z,72.41
2023-11-27T05:52:49.514Z,71.66
2023-11-27T05:55:16.577Z,70.54
2023-11-27T05:57:43.294Z,69.67
2023-11-27T06:00:12.048Z,69.41
2023-11-27T06:02:40.144Z,69.69
2023-11-27T06:05:07.304Z,68.29
2023-11-27T06:07:37.541Z,69.41
2023-11-27T06:10:05.401Z,70.22
2023-11-27T06:12:32.382Z,74.08
2023-11-27T06:14:59.122Z,76.27
2023-11-27T06:17:26.637Z,76.91
2023-11-27T06:19:53.814Z,77.47
2023-11-27T06:22:20.828Z,77.87
2023-11-27T06:24:49.370Z,79.16
2023-11-27T06:27:17.018Z,79.84
2023-11-27T06:29:44.621Z,78.64
2023-11-27T06:32:11.483Z,77.18
2023-11-27T06:34:38.348Z,74.35
2023-11-27T06:37:05.456Z,73.13
2023-11-27T06:39:34.300Z,73.72
2023-11-27T06:42:02.462Z,72.98
2023-11-27T06:44:29.578Z,71.71
2023-11-27T06:46:56.428Z,71.26
2023-11-27T06:49:23.500Z,73.42
2023-11-27T06:51:50.390Z,72.79
2023-11-27T06:54:17.196Z,71.66
2023-11-27T06:56:44.806Z,71.53
2023-11-27T06:59:11.637Z,72.97
2023-11-27T07:01:45.350Z,73.67
2023-11-27T07:04:12.622Z,71.96
2023-11-27T07:06:40.041Z,74.05
2023-11-27T07:09:08.524Z,73.88
2023-11-27T07:11:36.656Z,74.39
2023-11-27T07:14:04.801Z,75.31
2023-11-27T07:16:32.198Z,75.62
2023-11-27T07:18:59.363Z,75.72
2023-11-27T07:21:27.031Z,76.74
2023-11-27T07:23:57.818Z,76.78
2023-11-27T07:26:26.576Z,77.42
2023-11-27T07:28:57.232Z,76.42
2023-11-27T07:31:29.173Z,76.57
2023-11-27T07:33:56.126Z,74.75
2023-11-27T07:36:24.835Z,75.92
2023-11-27T07:38:52.283Z,74.06
2023-11-27T07:41:23.969Z,71.75
2023-11-27T07:43:53.700Z,73.48
2023-11-27T07:46:21.690Z,71.61
2023-11-27T07:48:49.645Z,70.83
2023-11-27T07:51:17.440Z,69.98
2023-11-27T07:53:44.458Z,67.13
2023-11-27T07:56:12.267Z,66.92
2023-11-27T07:58:40.124Z,67.34
2023-11-27T08:01:07.288Z,69.58
2023-11-27T08:03:37.641Z,68.00
2023-11-27T08:06:04.710Z,65.90
2023-11-27T08:08:31.488Z,64.58
2023-11-27T08:10:59.825Z,62.44
2023-11-27T08:13:26.586Z,62.43
2023-11-27T08:15:55.171Z,63.18
2023-11-27T08:18:22.312Z,61.75
2023-11-27T08:20:51.293Z,62.50
2023-11-27T08:23:18.049Z,63.39
2023-11-27T08:25:45.910Z,60.57
2023-11-27T08:28:13.142Z,62.82
2023-11-27T08:30:42.817Z,60.98
2023-11-27T08:33:10.736Z,60.77
2023-11-27T08:35:37.651Z,61.19
2023-11-27T08:38:05.822Z,62.64
2023-11-27T08:40:32.830Z,59.45
2023-11-27T08:43:01.945Z,61.25
2023-11-27T08:45:28.867Z,58.86
2023-11-27T08:47:56.821Z,60.76
2023-11-27T08:50:29.034Z,61.15
2023-11-27T08:53:00.829Z,60.23
2023-11-27T08:55:32.860Z,61.21
2023-11-27T08:58:05.150Z,60.17
2023-11-27T09:00:33.119Z,58.63
2023-11-27T09:03:01.921Z,61.43
2023-11-27T09:05:33.032Z,58.86
2023-11-27T09:08:07.999Z,57.06
2023-11-27T09:10:38.458Z,56.54
2023-11-27T09:13:08.775Z,58.57
2023-11-27T09:15:35.912Z,56.54
2023-11-27T09:18:03.071Z,57.06
2023-11-27T09:20:31.331Z,54.57
2023-11-27T09:23:01.908Z,53.86
2023-11-27T09:25:28.890Z,54.53
2023-11-27T09:27:55.823Z,57.00
2023-11-27T09:30:23.238Z,55.79
2023-11-27T09:32:51.449Z,52.96
2023-11-27T09:35:18.727Z,51.73
2023-11-27T09:37:45.567Z,51.02
2023-11-27T09:40:14.602Z,52.28
2023-11-27T09:42:47.096Z,52.23
2023-11-27T09:45:18.372Z,51.34
2023-11-27T09:47:49.236Z,50.91
2023-11-27T09:50:19.073Z,52.46
2023-11-27T09:53:08.243Z,51.17
2023-11-27T09:55:40.046Z,51.93
2023-11-27T09:58:10.437Z,49.05
2023-11-27T10:00:37.845Z,48.69
2023-11-27T10:03:05.172Z,45.38
2023-11-27T10:05:32.638Z,46.64
2023-11-27T10:07:59.879Z,48.17
2023-11-27T10:10:30.029Z,47.62
2023-11-27T10:13:09.904Z,47.75
2023-11-27T10:15:50.450Z,48.46
2023-11-27T10:18:21.666Z,48.73
2023-11-27T10:20:51.520Z,47.41
2023-11-27T10:23:18.458Z,48.47
2023-11-27T10:25:46.785Z,47.67
2023-11-27T10:28:17.790Z,48.81
2023-11-27T10:30:46.741Z,47.25
2023-11-27T10:33:15.433Z,49.60
2023-11-27T10:35:43.733Z,46.97
2023-11-27T10:38:18.540Z,46.52
2023-11-27T10:40:47.589Z,48.01
2023-11-27T10:43:14.850Z,48.42
2023-11-27T10:45:43.351Z,48.77
2023-11-27T10:48:12.511Z,45.92
2023-11-27T10:50:46.981Z,46.57
2023-11-27T10:53:15.836Z,45.81
2023-11-27T10:55:46.051Z,45.83
2023-11-27T10:58:15.520Z,44.93
2023-11-27T11:00:48.871Z,46.26
2023-11-27T11:03:20.599Z,44.87
2023-11-27T11:05:52.284Z,43.01
2023-11-27T11:08:28.714Z,40.24
2023-11-27T11:10:57.636Z,41.41
2023-11-27T11:13:28.406Z,37.39
2023-11-27T11:16:10.345Z,36.30
2023-11-27T11:18:49.819Z,35.39
2023-11-27T11:21:27.875Z,32.95
2023-11-27T11:24:22.541Z,31.86
2023-11-27T11:26:52.053Z,33.38
2023-11-27T11:29:33.675Z,37.29
2023-11-27T11:32:02.889Z,37.88
2023-11-27T11:34:39.998Z,37.00
2023-11-27T11:37:08.970Z,34.00
2023-11-27T11:39:36.081Z,35.90
2023-11-27T11:42:15.118Z,34.41
2023-11-27T11:44:42.863Z,31.58
2023-11-27T11:47:30.097Z,29.41
2023-11-27T11:50:19.326Z,29.01
2023-11-27T11:52:48.620Z,29.98
2023-11-27T11:55:26.490Z,30.89
2023-11-27T11:57:59.658Z,31.11
2023-11-27T12:00:30.363Z,31.75
2023-11-27T12:03:00.233Z,30.63
2023-11-27T12:05:27.156Z,30.32
2023-11-27T12:07:54.400Z,31.50
2023-11-27T12:10:21.221Z,31.06
2023-11-27T12:12:50.455Z,30.55
2023-11-27T12:15:18.105Z,31.54
2023-11-27T12:17:50.169Z,30.92
2023-11-27T12:20:22.993Z,28.50
2023-11-27T12:22:50.571Z,29.02
2023-11-27T12:25:22.009Z,28.77
2023-11-27T12:27:49.202Z,30.14
2023-11-27T12:30:21.841Z,29.88
2023-11-27T12:32:51.636Z,30.86
2023-11-27T12:35:19.877Z,30.88
2023-11-27T12:37:48.526Z,31.09
2023-11-27T12:40:19.787Z,31.33
2023-11-27T12:42:47.920Z,34.23
2023-11-27T12:45:22.357Z,32.62
2023-11-27T12:47:53.096Z,32.58
2023-11-27T12:50:28.564Z,32.75
2023-11-27T12:53:08.581Z,33.54
2023-11-27T12:55:40.565Z,33.38
2023-11-27T12:58:15.704Z,35.36
2023-11-27T13:00:48.281Z,35.76
2023-11-27T13:03:20.681Z,37.16
2023-11-27T13:05:54.356Z,38.11
2023-11-27T13:08:25.061Z,39.32
2023-11-27T13:10:53.000Z,38.99
2023-11-27T13:13:23.640Z,37.36
2023-11-27T13:15:54.791Z,35.38
2023-11-27T13:18:23.972Z,34.99
2023-11-27T13:20:54.732Z,34.74
2023-11-27T13:23:28.660Z,35.28
2023-11-27T13:26:00.324Z,36.87
2023-11-27T13:28:29.831Z,37.38
2023-11-27T13:31:00.618Z,38.73
2023-11-27T13:33:27.686Z,38.49
2023-11-27T13:35:59.131Z,39.74
2023-11-27T13:38:26.146Z,39.85
2023-11-27T13:40:57.115Z,41.07
2023-11-27T13:43:28.268Z,41.32
2023-11-27T13:45:55.263Z,41.67
2023-11-27T13:48:23.743Z,43.15
2023-11-27T13:50:51.547Z,43.11
2023-11-27T13:53:19.480Z,43.66
2023-11-27T13:55:56.481Z,44.35
2023-11-27T13:58:32.031Z,45.60
2023-11-27T14:01:11.440Z,45.63
2023-11-27T14:03:43.324Z,45.28
2023-11-27T14:06:24.877Z,46.89
2023-11-27T14:09:05.120Z,45.83
2023-11-27T14:11:35.206Z,46.62
2023-11-27T14:14:09.184Z,46.52
2023-11-27T14:16:45.356Z,47.53
2023-11-27T14:19:16.477Z,46.40
2023-11-27T14:22:02.729Z,46.55
2023-11-27T14:24:44.532Z,48.38
2023-11-27T14:27:20.801Z,47.79
2023-11-27T14:29:50.407Z,47.70
2023-11-27T14:32:21.883Z,48.67
2023-11-27T14:34:53.793Z,48.50
2023-11-27T14:37:22.473Z,48.60
2023-11-27T14:39:51.578Z,48.80
2023-11-27T14:42:21.060Z,50.05
2023-11-27T14:44:49.496Z,49.34
2023-11-27T14:47:16.900Z,50.46
2023-11-27T14:49:44.734Z,52.60
2023-11-27T14:52:14.719Z,51.79
2023-11-27T14:54:43.825Z,51.73
2023-11-27T14:57:13.594Z,52.37
2023-11-27T14:59:41.711Z,52.93
2023-11-27T15:02:10.206Z,53.35
2023-11-27T15:04:40.491Z,54.11
2023-11-27T15:07:09.544Z,54.30
2023-11-27T15:09:37.437Z,54.57
2023-11-27T15:12:05.992Z,55.91
2023-11-27T15:14:33.369Z,54.72
2023-11-27T15:17:04.221Z,54.88
2023-11-27T15:19:31.623Z,54.61
2023-11-27T15:21:58.695Z,55.22
2023-11-27T15:24:25.820Z,56.51
2023-11-27T15:26:55.144Z,57.17
2023-11-27T15:29:33.788Z,57.59
2023-11-27T15:32:00.712Z,57.97
2023-11-27T15:34:30.245Z,57.96
2023-11-27T15:37:22.813Z,57.09
2023-11-27T15:39:51.947Z,56.64
2023-11-27T15:42:19.046Z,56.41
2023-11-27T15:44:46.004Z,57.21
2023-11-27T15:47:17.130Z,57.61
2023-11-27T15:49:44.586Z,57.17
2023-11-27T15:52:13.192Z,56.46
2023-11-27T15:54:40.891Z,57.92
2023-11-27T15:57:09.712Z,57.68
2023-11-27T15:59:40.513Z,57.69
2023-11-27T16:02:09.123Z,58.69
2023-11-27T16:04:36.769Z,58.58
2023-11-27T16:07:04.764Z,58.94
2023-11-27T16:09:31.712Z,57.38
2023-11-27T16:12:00.076Z,58.01
2023-11-27T16:14:28.100Z,58.68
2023-11-27T16:16:56.287Z,56.83
2023-11-27T16:19:25.868Z,58.64
2023-11-27T16:21:52.665Z,58.16
2023-11-27T16:24:19.648Z,57.23
2023-11-27T16:26:48.838Z,57.38
2023-11-27T16:29:18.425Z,57.69
2023-11-27T16:31:49.247Z,55.78
2023-11-27T16:34:17.173Z,57.14
2023-11-27T16:36:44.555Z,56.04
2023-11-27T16:39:18.129Z,55.71
2023-11-27T16:41:45.040Z,55.90
2023-11-27T16:44:15.884Z,57.05
2023-11-27T16:46:42.950Z,58.57
2023-11-27T16:49:09.947Z,58.68
2023-11-27T16:51:36.722Z,58.99
2023-11-27T16:54:04.043Z,59.63
2023-11-27T16:56:31.111Z,60.24
2023-11-27T16:58:59.330Z,60.59
2023-11-27T17:01:26.730Z,60.80
2023-11-27T17:03:55.612Z,59.76
2023-11-27T17:06:22.527Z,59.36
2023-11-27T17:08:52.560Z,60.97
2023-11-27T17:11:20.445Z,61.96
2023-11-27T17:13:50.047Z,63.43
2023-11-27T17:16:17.943Z,64.23
2023-11-27T17:18:44.917Z,65.41
2023-11-27T17:21:11.771Z,65.47
2023-11-27T17:23:39.296Z,65.86
2023-11-27T17:26:06.857Z,66.16
2023-11-27T17:28:33.793Z,66.20
2023-11-27T17:31:02.242Z,67.55
2023-11-27T17:33:30.574Z,67.66
2023-11-27T17:35:58.204Z,66.60
2023-11-27T17:38:27.363Z,67.62
2023-11-27T17:40:54.717Z,68.79
2023-11-27T17:43:21.816Z,69.06
2023-11-27T17:45:48.921Z,69.53
2023-11-27T17:48:17.670Z,70.38
2023-11-27T17:50:44.684Z,70.96
2023-11-27T17:53:11.704Z,70.85
2023-11-27T17:55:45.772Z,70.69
2023-11-27T17:58:19.484Z,70.57
2023-11-27T18:00:48.073Z,70.80
2023-11-27T18:03:15.546Z,71.16
2023-11-27T18:05:42.550Z,71.63
2023-11-27T18:08:13.591Z,70.65
2023-11-27T18:10:40.703Z,71.57
2023-11-27T18:13:07.759Z,71.38
2023-11-27T18:15:34.575Z,71.88
2023-11-27T18:18:01.685Z,72.36
2023-11-27T18:20:30.257Z,72.80
2023-11-27T18:22:57.201Z,73.50
2023-11-27T18:25:24.714Z,73.38
2023-11-27T18:27:56.987Z,73.84
2023-11-27T18:30:24.564Z,73.49
2023-11-27T18:32:54.693Z,75.68
2023-11-27T18:35:21.460Z,75.25
2023-11-27T18:37:49.566Z,75.24
2023-11-27T18:40:19.262Z,75.34
2023-11-27T18:42:52.919Z,75.79
2023-11-27T18:45:24.912Z,75.75
2023-11-27T18:47:53.621Z,75.10
2023-11-27T18:50:26.438Z,75.54
2023-11-27T18:52:54.331Z,76.22
2023-11-27T18:55:22.662Z,75.83
2023-11-27T18:57:52.105Z,75.74
2023-11-27T19:00:20.552Z,76.09
2023-11-27T19:02:48.453Z,75.28
2023-11-27T19:05:21.343Z,75.43
2023-11-27T19:07:53.408Z,76.75
2023-11-27T19:10:23.744Z,77.47
2023-11-27T19:12:52.477Z,77.12
2023-11-27T19:15:20.721Z,77.79
2023-11-27T19:17:47.576Z,76.60
2023-11-27T19:20:14.871Z,76.85
2023-11-27T19:22:41.680Z,76.98
2023-11-27T19:25:15.832Z,76.31
2023-11-27T19:27:42.947Z,76.56
2023-11-27T19:30:11.264Z,76.08
2023-11-27T19:32:41.441Z,76.63
2023-11-27T19:35:10.080Z,76.86
2023-11-27T19:37:43.684Z,76.78
2023-11-27T19:40:11.672Z,77.59
2023-11-27T19:42:40.151Z,77.41
2023-11-27T19:45:09.289Z,77.61
2023-11-27T19:47:36.440Z,78.33
2023-11-27T19:50:05.270Z,78.28
2023-11-27T19:52:32.304Z,78.45
2023-11-27T19:55:00.798Z,78.29
2023-11-27T19:57:30.246Z,78.75
2023-11-27T19:59:56.927Z,78.35
2023-11-27T20:02:26.303Z,78.36
2023-11-27T20:04:53.338Z,78.05
2023-11-27T20:07:20.339Z,77.40
2023-11-27T20:09:47.157Z,77.20
2023-11-27T20:12:14.371Z,77.30
2023-11-27T20:14:44.734Z,76.79
2023-11-27T20:17:12.366Z,76.27
2023-11-27T20:19:40.026Z,76.71
2023-11-27T20:22:08.150Z,77.76
2023-11-27T20:24:35.071Z,78.05
2023-11-27T20:27:01.948Z,78.41
2023-11-27T20:29:28.884Z,79.00
2023-11-27T20:31:55.865Z,79.12
2023-11-27T20:34:22.795Z,78.97
2023-11-27T20:36:49.794Z,78.59
2023-11-27T20:39:16.619Z,79.24
2023-11-27T20:41:44.831Z,79.32
2023-11-27T20:44:11.705Z,79.93
2023-11-27T20:46:40.341Z,79.36
2023-11-27T20:49:07.443Z,80.42
2023-11-27T20:51:34.331Z,80.14
2023-11-27T20:54:04.226Z,80.43
2023-11-27T20:56:31.043Z,81.06
2023-11-27T20:58:59.342Z,81.41
2023-11-27T21:01:28.920Z,81.77
2023-11-27T21:03:56.514Z,82.41
2023-11-27T21:06:26.328Z,82.53
2023-11-27T21:08:53.886Z,82.76
2023-11-27T21:11:21.922Z,83.06
2023-11-27T21:13:49.187Z,83.15
2023-11-27T21:16:17.010Z,82.55
2023-11-27T21:18:44.589Z,83.09
2023-11-27T21:21:12.852Z,84.06
2023-11-27T21:23:39.836Z,83.97
2023-11-27T21:26:07.530Z,84.81
2023-11-27T21:28:34.945Z,85.40
2023-11-27T21:31:02.865Z,85.48
2023-11-27T21:33:29.706Z,85.86
2023-11-27T21:35:58.892Z,85.57
2023-11-27T21:38:26.109Z,85.98
2023-11-27T21:40:53.038Z,85.70
2023-11-27T21:43:19.826Z,85.00
2023-11-27T21:45:46.698Z,85.05
2023-11-27T21:48:13.598Z,84.73
2023-11-27T21:50:40.735Z,84.28
2023-11-27T21:53:08.951Z,83.94
2023-11-27T21:55:35.889Z,83.39
2023-11-27T21:58:03.502Z,83.97
2023-11-27T22:00:30.302Z,82.98
2023-11-27T22:02:57.311Z,82.18
2023-11-27T22:05:24.179Z,81.91
2023-11-27T22:07:51.072Z,82.59
2023-11-27T22:10:20.280Z,82.04
2023-11-27T22:12:47.404Z,81.76
2023-11-27T22:15:15.566Z,81.44
2023-11-27T22:17:42.877Z,81.58
2023-11-27T22:20:10.854Z,81.80
2023-11-27T22:22:39.149Z,82.08
2023-11-27T22:25:07.089Z,81.72
2023-11-27T22:27:34.112Z,80.72
2023-11-27T22:30:01.095Z,80.67
2023-11-27T22:32:29.159Z,80.80
2023-11-27T22:34:57.311Z,79.94
2023-11-27T22:37:24.291Z,79.73
2023-11-27T22:40:00.607Z,79.33
2023-11-27T22:42:27.403Z,78.32
2023-11-27T22:44:54.634Z,78.00
2023-11-27T22:47:21.398Z,76.76
2023-11-27T22:49:48.242Z,75.80
2023-11-27T22:52:15.112Z,76.98
2023-11-27T22:54:43.194Z,77.41
2023-11-27T22:57:10.470Z,77.57
2023-11-27T22:59:39.467Z,77.62
2023-11-27T23:02:07.187Z,78.11
2023-11-27T23:04:35.720Z,78.47
2023-11-27T23:07:03.137Z,78.60
2023-11-27T23:09:29.940Z,77.70
2023-11-27T23:11:57.712Z,78.25
2023-11-27T23:14:24.814Z,78.45
2023-11-27T23:16:51.959Z,78.65
2023-11-27T23:19:19.533Z,78.57
2023-11-27T23:21:46.452Z,78.81
2023-11-27T23:24:17.612Z,79.08
2023-11-27T23:26:50.932Z,79.57
2023-11-27T23:29:18.507Z,80.17
2023-11-27T23:31:46.700Z,80.27
2023-11-27T23:34:13.589Z,80.45
2023-11-27T23:36:40.460Z,80.33
2023-11-27T23:39:09.833Z,81.14
2023-11-27T23:41:36.881Z,81.38
2023-11-27T23:44:04.909Z,81.55
2023-11-27T23:46:33.118Z,82.03
2023-11-27T23:48:59.950Z,82.66
2023-11-27T23:51:28.335Z,82.25
2023-11-27T23:54:00.413Z,82.22
2023-11-27T23:56:27.388Z,82.35
2023-11-27T23:58:54.122Z,82.13
